Time;durP1;ratioP1;P1;durP2;ratioP2;P2;SDS_P1;SDS_P2;PMS_P1;PMS_P2;Temp;Humidity;BMP_temperature;BMP_pressure;BME280_temperature;BME280_humidity;BME280_pressure;Samples;Min_cycle;Max_cycle;Signal;HPM_P1;HPM_P2
2021/07/28 00:00:17;;;;;;;30.13;19.30;;;15.50;89.60;;;;;;5052315;28;20048;-74
2021/07/28 00:02:44;;;;;;;25.65;18.58;;;15.50;89.60;;;;;;5052749;28;20123;-74
2021/07/28 00:05:12;;;;;;;31.80;19.33;;;15.50;89.60;;;;;;5050763;28;20049;-74
2021/07/28 00:07:40;;;;;;;27.52;18.90;;;15.50;89.60;;;;;;5051116;28;20036;-75
2021/07/28 00:10:09;;;;;;;25.80;18.80;;;15.50;89.70;;;;;;5051027;28;20053;-74
2021/07/28 00:12:39;;;;;;;32.03;19.08;;;15.50;89.70;;;;;;5052295;28;20056;-74
2021/07/28 00:15:07;;;;;;;27.10;18.80;;;15.40;89.70;;;;;;5050525;28;20045;-75
2021/07/28 00:17:39;;;;;;;30.80;19.92;;;15.40;89.60;;;;;;5052316;28;20045;-75
2021/07/28 00:23:14;;;;;;;31.02;18.45;;;15.40;89.60;;;;;;5039793;28;20424;-75
2021/07/28 00:25:44;;;;;;;23.55;16.80;;;15.40;89.50;;;;;;5067260;28;20049;-74
2021/07/28 00:28:12;;;;;;;27.25;17.38;;;15.40;89.50;;;;;;5050190;28;20515;-75
2021/07/28 00:30:41;;;;;;;25.42;16.92;;;15.40;89.50;;;;;;5034284;28;20064;-75
2021/07/28 00:33:10;;;;;;;24.15;16.42;;;15.30;89.40;;;;;;5052299;28;20060;-75
2021/07/28 00:35:37;;;;;;;27.67;16.83;;;15.30;89.50;;;;;;5052084;28;20041;-75
2021/07/28 00:38:13;;;;;;;27.77;17.38;;;15.30;89.60;;;;;;5052153;28;20060;-75
2021/07/28 00:40:45;;;;;;;28.33;18.38;;;15.30;89.60;;;;;;5017930;28;20049;-75
2021/07/28 00:43:15;;;;;;;36.42;18.90;;;15.30;89.60;;;;;;5051905;28;20412;-75
2021/07/28 00:45:43;;;;;;;33.63;19.40;;;15.30;89.70;;;;;;5052398;28;20049;-75
2021/07/28 00:48:14;;;;;;;33.22;20.75;;;15.20;89.80;;;;;;5051973;28;20057;-74
2021/07/28 00:50:41;;;;;;;34.25;20.70;;;15.20;89.80;;;;;;5017687;28;20049;-74
2021/07/28 00:53:19;;;;;;;35.45;20.88;;;15.20;89.80;;;;;;5050751;28;20041;-75
2021/07/28 00:55:48;;;;;;;35.90;22.20;;;15.20;89.90;;;;;;5053291;28;20052;-75
2021/07/28 00:58:31;;;;;;;34.45;21.98;;;15.20;89.90;;;;;;5075400;28;20052;-75
2021/07/28 01:00:59;;;;;;;35.38;22.80;;;15.20;90.00;;;;;;5075593;28;20059;-75
2021/07/28 01:03:27;;;;;;;42.78;25.13;;;15.20;90.00;;;;;;5074853;28;20048;-75
2021/07/28 01:05:59;;;;;;;36.72;23.05;;;15.20;90.00;;;;;;5074968;28;20051;-75
2021/07/28 01:08:27;;;;;;;40.17;24.67;;;15.30;90.00;;;;;;5075757;28;20047;-75
2021/07/28 01:10:57;;;;;;;41.00;24.27;;;15.30;90.10;;;;;;5057722;28;20483;-74
2021/07/28 01:13:29;;;;;;;41.95;24.85;;;15.30;90.00;;;;;;5074358;28;20078;-75
2021/07/28 01:16:10;;;;;;;45.50;24.92;;;15.30;90.00;;;;;;5074406;28;20048;-74
2021/07/28 01:18:39;;;;;;;36.05;24.38;;;15.30;90.10;;;;;;5058264;28;20036;-75
2021/07/28 01:21:09;;;;;;;48.63;25.55;;;15.30;90.20;;;;;;5074136;28;20499;-74
2021/07/28 01:23:38;;;;;;;46.63;25.25;;;15.30;90.10;;;;;;5074239;28;20041;-74
2021/07/28 01:26:07;;;;;;;45.08;25.50;;;15.30;90.20;;;;;;5057053;28;20063;-74
2021/07/28 01:28:36;;;;;;;48.45;27.05;;;15.20;90.30;;;;;;5073839;28;20041;-75
2021/07/28 01:31:05;;;;;;;49.13;25.95;;;15.30;90.30;;;;;;5075176;28;20059;-73
2021/07/28 01:33:44;;;;;;;41.83;24.88;;;15.20;90.40;;;;;;5073948;28;20044;-73
2021/07/28 01:36:29;;;;;;;42.38;25.67;;;15.20;90.60;;;;;;5060514;28;20413;-73
2021/07/28 01:38:57;;;;;;;43.63;25.83;;;15.20;90.60;;;;;;5055230;28;20052;-74
2021/07/28 01:41:26;;;;;;;48.58;25.48;;;15.20;90.50;;;;;;5037293;28;20045;-74
2021/07/28 01:43:53;;;;;;;45.90;25.73;;;15.10;90.60;;;;;;5053746;28;20052;-74
2021/07/28 01:46:21;;;;;;;46.67;25.42;;;15.20;90.60;;;;;;5055064;28;20052;-73
2021/07/28 01:48:49;;;;;;;46.65;25.20;;;15.20;90.60;;;;;;5053789;28;20040;-73
2021/07/28 01:51:16;;;;;;;45.40;25.35;;;15.20;90.70;;;;;;5036859;28;20412;-74
2021/07/28 01:53:44;;;;;;;46.67;26.02;;;15.20;90.60;;;;;;5055045;28;20064;-73
2021/07/28 01:56:13;;;;;;;46.88;26.50;;;15.20;90.70;;;;;;5054301;28;20053;-73
2021/07/28 01:58:43;;;;;;;45.03;26.60;;;15.20;90.70;;;;;;5074640;28;20044;-75
2021/07/28 02:01:11;;;;;;;44.13;26.67;;;15.20;90.70;;;;;;5073299;28;20059;-75
2021/07/28 02:03:39;;;;;;;52.53;28.80;;;15.20;90.70;;;;;;5074839;28;20051;-75
2021/07/28 02:06:07;;;;;;;50.95;27.33;;;15.20;90.70;;;;;;5073422;28;20047;-75
2021/07/28 02:08:35;;;;;;;49.42;29.00;;;15.20;90.70;;;;;;5074930;28;20060;-75
2021/07/28 02:11:03;;;;;;;51.72;29.20;;;15.20;90.70;;;;;;5073349;28;20044;-75
2021/07/28 02:13:30;;;;;;;46.90;27.17;;;15.20;90.70;;;;;;5073235;28;20047;-74
2021/07/28 02:15:58;;;;;;;59.03;28.35;;;15.20;90.80;;;;;;5073326;28;20206;-75
2021/07/28 02:18:26;;;;;;;45.33;26.88;;;15.20;90.70;;;;;;5073326;28;20453;-75
2021/07/28 02:20:55;;;;;;;52.47;28.65;;;15.30;90.70;;;;;;5073052;28;20063;-75
2021/07/28 02:23:23;;;;;;;48.25;27.25;;;15.30;90.70;;;;;;5072737;28;20049;-74
2021/07/28 02:25:51;;;;;;;48.80;28.20;;;15.30;90.60;;;;;;5074354;28;20048;-75
2021/07/28 02:28:19;;;;;;;52.17;28.92;;;15.30;90.60;;;;;;5074009;28;20056;-75
2021/07/28 02:30:46;;;;;;;56.65;30.85;;;15.30;90.60;;;;;;5072380;28;20057;-75
2021/07/28 02:33:14;;;;;;;49.45;29.25;;;15.30;90.60;;;;;;5055906;28;20063;-75
2021/07/28 02:35:42;;;;;;;53.75;29.05;;;15.30;90.60;;;;;;5072312;28;20111;-75
2021/07/28 02:38:10;;;;;;;43.88;27.73;;;15.30;90.60;;;;;;5073447;28;20044;-75
2021/07/28 02:40:37;;;;;;;49.20;29.90;;;15.40;90.60;;;;;;5073256;28;20041;-74
2021/07/28 02:43:05;;;;;;;49.17;29.27;;;15.40;90.60;;;;;;5073362;28;20053;-74
2021/07/28 02:45:33;;;;;;;49.65;28.45;;;15.40;90.60;;;;;;5072115;28;20407;-74
2021/07/28 02:48:04;;;;;;;52.85;28.90;;;15.40;90.60;;;;;;5073040;28;20040;-74
2021/07/28 02:50:33;;;;;;;53.70;30.23;;;15.40;90.50;;;;;;5055488;28;20044;-74
2021/07/28 02:53:00;;;;;;;53.33;29.75;;;15.50;90.40;;;;;;5055033;28;20040;-74
2021/07/28 02:55:28;;;;;;;49.70;29.08;;;15.40;90.40;;;;;;5071519;28;20063;-75
2021/07/28 02:57:56;;;;;;;48.63;29.02;;;15.40;90.40;;;;;;5069443;28;20052;-74
2021/07/28 03:00:23;;;;;;;48.72;28.15;;;15.40;90.40;;;;;;5073973;28;20059;-74
2021/07/28 03:02:51;;;;;;;47.70;26.42;;;15.40;90.40;;;;;;5072460;28;20041;-74
2021/07/28 03:05:19;;;;;;;43.97;25.38;;;15.40;90.40;;;;;;5072005;28;20060;-74
2021/07/28 03:07:47;;;;;;;33.05;22.58;;;15.30;90.30;;;;;;5039288;28;20542;-75
2021/07/28 03:10:14;;;;;;;36.75;22.83;;;15.30;90.30;;;;;;5072112;28;20045;-74
2021/07/28 03:12:42;;;;;;;31.20;19.92;;;15.30;90.30;;;;;;5072229;28;20048;-75
2021/07/28 03:15:10;;;;;;;28.30;18.38;;;15.30;90.30;;;;;;5055495;28;20060;-74
2021/07/28 03:17:37;;;;;;;24.48;15.95;;;15.30;90.30;;;;;;5072005;28;20040;-70
2021/07/28 03:20:05;;;;;;;19.23;13.07;;;15.30;90.40;;;;;;5072994;28;20511;-70
2021/07/28 03:22:33;;;;;;;16.02;9.90;;;15.20;90.60;;;;;;5071802;28;20053;-70
2021/07/28 03:25:01;;;;;;;14.30;8.23;;;15.00;90.40;;;;;;5088106;28;20495;-70
2021/07/28 03:27:29;;;;;;;11.43;7.50;;;14.90;90.60;;;;;;5088670;28;20499;-71
2021/07/28 03:29:57;;;;;;;14.93;8.45;;;14.80;90.80;;;;;;5073566;28;20384;-71
2021/07/28 03:32:25;;;;;;;10.40;7.03;;;14.70;91.10;;;;;;5071605;28;20052;-70
2021/07/28 03:34:52;;;;;;;10.38;6.70;;;14.60;91.30;;;;;;5073155;28;20051;-69
2021/07/28 03:37:20;;;;;;;9.80;7.88;;;14.60;91.50;;;;;;5073184;28;20455;-71
2021/07/28 03:39:59;;;;;;;8.10;7.28;;;14.50;91.60;;;;;;5071589;28;20044;-71
2021/07/28 03:42:29;;;;;;;8.35;6.13;;;14.50;91.80;;;;;;5073058;28;20044;-71
2021/07/28 03:44:58;;;;;;;14.68;9.93;;;14.40;91.90;;;;;;5071540;28;20052;-71
2021/07/28 03:47:27;;;;;;;14.43;9.70;;;14.40;92.00;;;;;;5072330;28;20060;-70
2021/07/28 03:49:55;;;;;;;11.07;8.93;;;14.40;92.10;;;;;;5072724;28;20040;-71
2021/07/28 03:52:22;;;;;;;16.17;9.80;;;14.40;92.10;;;;;;5072613;28;20055;-71
2021/07/28 03:54:51;;;;;;;11.98;9.05;;;14.40;92.20;;;;;;5072685;28;20041;-71
2021/07/28 03:57:18;;;;;;;11.55;8.65;;;14.40;92.20;;;;;;5070143;28;20048;-71
2021/07/28 03:59:46;;;;;;;15.15;8.68;;;14.40;92.20;;;;;;5071215;28;20063;-70
2021/07/28 04:02:14;;;;;;;11.90;9.02;;;14.40;92.30;;;;;;5072590;28;20041;-71
2021/07/28 04:04:42;;;;;;;11.55;7.63;;;14.40;92.30;;;;;;5071472;28;20044;-72
2021/07/28 04:07:11;;;;;;;10.75;6.43;;;14.40;92.30;;;;;;5071353;28;20048;-72
2021/07/28 04:09:39;;;;;;;6.60;4.68;;;14.40;92.10;;;;;;5070920;28;20063;-72
2021/07/28 04:12:07;;;;;;;7.88;5.18;;;14.40;91.80;;;;;;5072702;28;20048;-72
2021/07/28 04:14:35;;;;;;;5.53;4.43;;;14.40;91.60;;;;;;5072276;28;20043;-72
2021/07/28 04:17:03;;;;;;;6.20;3.88;;;14.30;91.40;;;;;;5071339;28;20047;-72
2021/07/28 04:19:31;;;;;;;4.93;3.92;;;14.30;91.40;;;;;;5071037;28;20045;-72
2021/07/28 04:21:59;;;;;;;6.18;3.83;;;14.30;91.30;;;;;;5070876;28;20048;-73
2021/07/28 04:24:27;;;;;;;5.25;4.30;;;14.20;91.20;;;;;;5072064;28;20044;-72
2021/07/28 04:26:54;;;;;;;10.57;4.03;;;14.20;91.10;;;;;;5072068;28;20053;-72
2021/07/28 04:29:22;;;;;;;4.65;4.20;;;14.20;91.10;;;;;;5072066;28;20059;-72
2021/07/28 04:31:50;;;;;;;6.57;3.60;;;14.10;91.10;;;;;;5071450;28;20052;-71
2021/07/28 04:34:20;;;;;;;5.47;3.10;;;14.20;91.00;;;;;;5071058;28;20036;-71
2021/07/28 04:36:48;;;;;;;5.32;3.15;;;14.20;91.00;;;;;;5071880;28;20067;-71
2021/07/28 04:39:16;;;;;;;7.57;3.65;;;14.10;90.80;;;;;;5071897;28;20057;-72
2021/07/28 04:41:43;;;;;;;3.65;3.30;;;14.10;90.80;;;;;;5072117;28;20048;-72
2021/07/28 04:44:11;;;;;;;4.10;3.03;;;14.10;90.70;;;;;;5070770;28;20040;-71
2021/07/28 04:46:39;;;;;;;3.92;3.17;;;14.10;90.60;;;;;;5071905;28;20053;-72
2021/07/28 04:49:06;;;;;;;6.60;3.42;;;14.10;90.50;;;;;;5071904;28;20044;-71
2021/07/28 04:51:34;;;;;;;4.65;3.35;;;14.10;90.40;;;;;;5070491;28;20048;-71
2021/07/28 04:54:02;;;;;;;4.63;3.40;;;14.20;90.40;;;;;;5069998;28;20055;-71
2021/07/28 04:56:29;;;;;;;3.47;3.15;;;14.20;90.40;;;;;;5071730;28;20044;-71
2021/07/28 04:58:58;;;;;;;4.70;3.65;;;14.20;90.40;;;;;;5071676;28;20052;-72
2021/07/28 05:01:35;;;;;;;4.70;3.53;;;14.10;90.30;;;;;;5071920;28;20059;-71
2021/07/28 05:04:04;;;;;;;4.80;3.40;;;14.10;90.30;;;;;;5071813;28;20051;-71
2021/07/28 05:06:33;;;;;;;6.88;4.05;;;14.10;90.30;;;;;;5070267;28;20411;-71
2021/07/28 05:09:01;;;;;;;5.22;4.20;;;14.10;90.30;;;;;;5071801;28;20507;-71
2021/07/28 05:11:28;;;;;;;6.32;4.20;;;14.00;90.30;;;;;;5071275;28;20056;-71
2021/07/28 05:13:56;;;;;;;10.90;4.57;;;14.00;90.40;;;;;;5071624;28;20052;-71
2021/07/28 05:16:23;;;;;;;5.07;4.47;;;14.00;90.50;;;;;;5071585;28;20511;-71
2021/07/28 05:18:51;;;;;;;6.70;4.13;;;14.00;90.50;;;;;;5071789;28;20045;-71
2021/07/28 05:21:19;;;;;;;5.65;4.60;;;14.00;90.50;;;;;;5071526;28;20049;-72
2021/07/28 05:23:47;;;;;;;5.05;4.25;;;14.00;90.60;;;;;;5071689;28;20044;-71
2021/07/28 05:26:14;;;;;;;5.20;4.70;;;14.00;90.60;;;;;;5071528;28;20049;-71
2021/07/28 05:28:42;;;;;;;7.28;5.05;;;14.00;90.70;;;;;;5071573;28;20052;-72
2021/07/28 05:31:09;;;;;;;6.13;5.05;;;14.00;90.70;;;;;;5070002;28;20045;-72
2021/07/28 05:33:38;;;;;;;10.00;5.55;;;14.00;90.80;;;;;;5087211;28;20048;-72
2021/07/28 05:36:05;;;;;;;5.68;5.18;;;14.00;90.80;;;;;;5069927;28;20048;-72
2021/07/28 05:38:33;;;;;;;6.75;5.25;;;14.00;90.90;;;;;;5071395;28;20067;-72
2021/07/28 05:41:02;;;;;;;11.13;5.97;;;14.10;90.90;;;;;;5071571;28;20048;-73
2021/07/28 05:43:30;;;;;;;9.57;5.40;;;14.10;90.90;;;;;;5075081;28;20041;-72
2021/07/28 05:45:58;;;;;;;12.00;6.25;;;14.10;90.90;;;;;;5090661;28;20055;-72
2021/07/28 05:48:31;;;;;;;6.50;5.85;;;14.20;91.00;;;;;;5073947;28;20368;-72
2021/07/28 05:50:59;;;;;;;6.80;6.10;;;14.20;91.00;;;;;;5073829;28;20044;-72
2021/07/28 05:53:27;;;;;;;7.82;5.72;;;14.20;91.00;;;;;;5075085;28;20044;-72
2021/07/28 05:55:55;;;;;;;10.82;5.93;;;14.30;91.00;;;;;;5073871;28;20048;-72
2021/07/28 05:58:22;;;;;;;17.92;6.68;;;14.30;91.00;;;;;;5073040;28;20060;-72
2021/07/28 06:00:50;;;;;;;15.57;5.97;;;14.30;91.00;;;;;;5050518;28;20044;-73
2021/07/28 06:03:18;;;;;;;10.50;6.68;;;14.30;90.90;;;;;;5036875;28;20059;-73
2021/07/28 06:05:46;;;;;;;10.23;7.20;;;14.40;90.90;;;;;;5053020;28;20060;-73
2021/07/28 06:08:13;;;;;;;10.40;6.72;;;14.40;90.90;;;;;;5054728;28;20053;-73
2021/07/28 06:10:41;;;;;;;9.45;6.97;;;14.40;90.90;;;;;;5053278;28;20053;-73
2021/07/28 06:13:09;;;;;;;9.60;6.75;;;14.50;90.90;;;;;;5053598;28;20068;-73
2021/07/28 06:15:36;;;;;;;17.25;6.65;;;14.50;90.80;;;;;;5053263;28;20037;-73
2021/07/28 06:18:09;;;;;;;10.00;5.30;;;14.60;90.80;;;;;;5053477;28;20048;-73
2021/07/28 06:20:36;;;;;;;7.00;5.00;;;14.50;90.80;;;;;;5054331;28;20512;-73
2021/07/28 06:23:04;;;;;;;6.22;5.10;;;14.50;90.60;;;;;;5054371;28;20044;-73
2021/07/28 06:25:32;;;;;;;6.38;4.97;;;14.50;90.60;;;;;;5054279;28;20053;-73
2021/07/28 06:28:02;;;;;;;6.53;5.57;;;14.50;90.50;;;;;;5054079;28;20045;-73
2021/07/28 06:30:30;;;;;;;8.63;5.38;;;14.50;90.40;;;;;;5053206;28;20049;-72
2021/07/28 06:32:57;;;;;;;10.68;6.03;;;14.60;90.40;;;;;;5052096;28;20053;-72
2021/07/28 06:35:25;;;;;;;10.52;5.93;;;14.60;90.20;;;;;;5053176;28;20060;-73
2021/07/28 06:37:54;;;;;;;9.18;5.63;;;14.70;90.10;;;;;;5053085;28;20550;-74
2021/07/28 06:40:21;;;;;;;6.78;5.28;;;14.70;89.90;;;;;;5053159;28;20503;-73
2021/07/28 06:42:49;;;;;;;6.63;5.15;;;14.80;89.70;;;;;;5053086;28;20503;-73
2021/07/28 06:45:16;;;;;;;7.60;5.82;;;14.90;89.50;;;;;;5035208;28;20068;-73
2021/07/28 06:47:44;;;;;;;7.90;5.82;;;14.90;89.40;;;;;;5052999;28;20510;-74
2021/07/28 06:50:12;;;;;;;8.13;6.20;;;15.10;89.20;;;;;;5051340;28;20064;-75
2021/07/28 06:52:40;;;;;;;14.82;6.45;;;15.10;89.10;;;;;;5051299;28;20049;-73
2021/07/28 06:55:09;;;;;;;7.47;5.88;;;15.20;89.00;;;;;;5052528;28;20049;-73
2021/07/28 06:57:37;;;;;;;11.52;5.90;;;15.30;88.90;;;;;;5064803;28;20051;-73
2021/07/28 07:00:06;;;;;;;15.13;6.85;;;15.30;88.70;;;;;;5071444;28;20523;-73
2021/07/28 07:02:34;;;;;;;8.40;5.20;;;15.40;88.60;;;;;;5054424;28;20060;-74
2021/07/28 07:05:03;;;;;;;7.47;4.75;;;15.60;88.40;;;;;;5072432;28;20040;-73
2021/07/28 07:07:33;;;;;;;7.95;5.03;;;15.70;87.30;;;;;;5071805;28;20514;-72
2021/07/28 07:10:01;;;;;;;6.85;6.05;;;15.70;86.70;;;;;;5072172;28;20502;-72
2021/07/28 07:12:29;;;;;;;13.57;6.60;;;15.70;86.80;;;;;;5072105;28;20044;-72
2021/07/28 07:14:57;;;;;;;5.10;4.60;;;15.60;86.80;;;;;;5073422;28;20041;-73
2021/07/28 07:17:24;;;;;;;6.40;5.30;;;15.60;86.70;;;;;;5071595;28;20052;-73
2021/07/28 07:19:53;;;;;;;6.53;5.13;;;15.50;86.80;;;;;;5071711;28;20060;-73
2021/07/28 07:22:21;;;;;;;6.78;4.55;;;15.40;86.90;;;;;;5055256;28;20045;-72
2021/07/28 07:24:48;;;;;;;9.85;5.60;;;15.30;86.40;;;;;;5055131;28;20063;-73
2021/07/28 07:27:16;;;;;;;6.32;4.00;;;15.30;86.60;;;;;;5073005;28;20514;-73
2021/07/28 07:29:46;;;;;;;8.40;5.20;;;15.30;86.70;;;;;;5072025;28;20399;-73
2021/07/28 07:32:19;;;;;;;7.57;5.43;;;15.20;86.40;;;;;;5072995;28;20079;-73
2021/07/28 07:34:48;;;;;;;5.97;4.63;;;15.30;86.50;;;;;;5069554;28;20396;-72
2021/07/28 07:37:17;;;;;;;6.55;4.72;;;15.30;86.50;;;;;;5072556;28;20040;-73
2021/07/28 07:39:45;;;;;;;6.85;4.53;;;15.30;86.10;;;;;;5093206;28;20383;-72
2021/07/28 07:42:13;;;;;;;5.72;4.30;;;15.30;85.60;;;;;;5056985;28;20053;-72
2021/07/28 07:44:43;;;;;;;5.38;4.03;;;15.40;85.60;;;;;;5071493;28;20044;-72
2021/07/28 07:47:12;;;;;;;4.75;3.90;;;15.50;85.50;;;;;;5071606;28;20048;-72
2021/07/28 07:49:39;;;;;;;9.10;3.75;;;15.50;85.00;;;;;;5071749;28;20037;-72
2021/07/28 07:52:07;;;;;;;5.80;3.67;;;15.50;85.00;;;;;;5071121;28;20060;-73
2021/07/28 07:54:35;;;;;;;5.30;4.10;;;15.60;85.00;;;;;;5072881;28;20040;-72
2021/07/28 07:57:05;;;;;;;9.98;4.50;;;15.60;85.10;;;;;;5065177;28;20041;-72
2021/07/28 07:59:33;;;;;;;5.05;3.58;;;15.60;85.10;;;;;;5059106;28;20051;-72
2021/07/28 08:02:00;;;;;;;5.57;3.67;;;15.70;85.10;;;;;;5060946;28;20295;-72
2021/07/28 08:04:28;;;;;;;7.25;3.53;;;15.80;85.20;;;;;;5061159;28;20044;-73
2021/07/28 08:06:58;;;;;;;4.88;3.40;;;15.90;84.90;;;;;;5061832;28;20040;-73
2021/07/28 08:09:26;;;;;;;7.10;3.60;;;15.90;84.80;;;;;;5062632;28;20044;-72
2021/07/28 08:11:56;;;;;;;7.47;3.78;;;15.90;84.40;;;;;;5061898;28;20048;-73
2021/07/28 08:14:24;;;;;;;8.35;3.10;;;16.00;84.30;;;;;;5060212;28;20044;-74
2021/07/28 08:16:51;;;;;;;8.50;3.65;;;16.10;83.50;;;;;;5059274;28;20441;-73
2021/07/28 08:19:19;;;;;;;8.90;3.45;;;16.20;83.60;;;;;;5063625;28;20040;-73
2021/07/28 08:21:47;;;;;;;6.28;3.75;;;16.20;83.40;;;;;;5063193;28;20037;-73
2021/07/28 08:24:16;;;;;;;3.95;3.42;;;16.20;83.20;;;;;;5064328;28;20058;-73
2021/07/28 08:26:44;;;;;;;4.30;3.53;;;16.20;83.40;;;;;;5095086;28;20048;-73
2021/07/28 08:29:12;;;;;;;6.00;2.95;;;16.20;83.40;;;;;;5062927;28;20373;-73
2021/07/28 08:31:45;;;;;;;3.55;2.75;;;16.10;83.00;;;;;;5043334;28;20068;-73
2021/07/28 08:34:33;;;;;;;4.75;3.28;;;16.10;83.00;;;;;;5067824;28;20040;-73
2021/07/28 08:37:01;;;;;;;6.00;3.38;;;16.00;82.60;;;;;;5071980;28;20048;-73
2021/07/28 08:39:29;;;;;;;9.10;3.17;;;15.90;82.20;;;;;;5071884;28;20056;-74
2021/07/28 08:42:05;;;;;;;5.43;3.22;;;15.90;82.40;;;;;;5041004;28;20044;-73
2021/07/28 08:44:37;;;;;;;4.93;3.10;;;15.90;82.60;;;;;;5050682;28;20045;-73
2021/07/28 08:47:06;;;;;;;4.47;3.03;;;16.00;82.60;;;;;;5034101;28;20048;-74
2021/07/28 08:49:34;;;;;;;6.25;3.25;;;16.00;82.60;;;;;;5050587;28;20049;-74
2021/07/28 08:52:02;;;;;;;4.53;2.80;;;16.10;82.40;;;;;;5051718;28;20515;-73
2021/07/28 08:54:30;;;;;;;5.55;2.95;;;16.20;82.10;;;;;;5053766;28;20056;-73
2021/07/28 08:56:59;;;;;;;3.17;2.88;;;16.20;81.50;;;;;;5090802;28;20043;-73
2021/07/28 08:59:29;;;;;;;4.80;3.00;;;16.30;81.30;;;;;;5076947;28;20044;-73
2021/07/28 09:01:58;;;;;;;4.80;3.15;;;16.30;81.10;;;;;;5070229;28;20063;-74
2021/07/28 09:04:27;;;;;;;6.45;3.45;;;16.40;80.70;;;;;;5060534;28;20044;-73
2021/07/28 09:06:56;;;;;;;4.93;3.05;;;16.50;80.60;;;;;;5033710;28;20053;-73
2021/07/28 09:09:24;;;;;;;8.88;3.00;;;16.60;80.30;;;;;;5051421;28;20059;-73
2021/07/28 09:11:56;;;;;;;3.33;2.58;;;16.70;79.40;;;;;;5051391;28;20049;-73
2021/07/28 09:14:28;;;;;;;4.35;2.72;;;16.80;79.40;;;;;;5054827;28;20049;-73
2021/07/28 09:17:13;;;;;;;5.47;2.90;;;16.80;79.00;;;;;;5063873;28;20041;-73
2021/07/28 09:19:43;;;;;;;4.63;2.85;;;16.90;78.80;;;;;;5056130;28;20052;-73
2021/07/28 09:22:30;;;;;;;7.72;2.88;;;17.10;78.70;;;;;;5075451;28;20053;-74
2021/07/28 09:25:07;;;;;;;3.65;2.85;;;17.20;78.20;;;;;;5075397;28;20051;-74
2021/07/28 09:27:41;;;;;;;5.35;3.10;;;17.30;77.50;;;;;;5075230;28;20045;-74
2021/07/28 09:30:13;;;;;;;4.15;2.92;;;17.30;77.70;;;;;;5075468;28;20426;-74
2021/07/28 09:33:00;;;;;;;3.38;2.92;;;17.30;77.70;;;;;;5070796;28;20479;-74
2021/07/28 09:35:46;;;;;;;3.20;2.60;;;17.40;77.30;;;;;;5063188;28;20045;-74
2021/07/28 09:38:33;;;;;;;6.05;2.72;;;17.50;77.10;;;;;;5054853;28;20068;-79
2021/07/28 09:41:22;;;;;;;3.92;2.50;;;17.60;76.80;;;;;;5054037;28;20044;-73
2021/07/28 09:44:02;;;;;;;7.95;2.67;;;17.60;75.90;;;;;;5053368;28;20399;-73
2021/07/28 09:46:32;;;;;;;7.78;2.80;;;17.40;75.40;;;;;;5054051;28;20045;-73
2021/07/28 09:49:08;;;;;;;4.32;2.58;;;17.30;76.40;;;;;;5053858;28;20060;-73
2021/07/28 09:51:41;;;;;;;5.10;2.78;;;17.40;77.00;;;;;;5071034;28;20411;-74
2021/07/28 09:54:11;;;;;;;2.80;2.42;;;17.60;76.30;;;;;;5073557;28;20159;-75
2021/07/28 09:56:51;;;;;;;3.75;2.20;;;17.80;75.10;;;;;;5073233;28;20045;-74
2021/07/28 09:59:21;;;;;;;3.15;2.35;;;18.00;74.80;;;;;;5073586;28;20047;-74
2021/07/28 10:01:51;;;;;;;2.85;2.33;;;18.20;74.80;;;;;;5070289;28;20037;-74
2021/07/28 10:04:20;;;;;;;6.03;2.50;;;18.50;74.10;;;;;;5074836;28;20044;-74
2021/07/28 10:06:52;;;;;;;3.97;2.25;;;18.70;73.10;;;;;;5073598;28;20063;-74
2021/07/28 10:09:34;;;;;;;5.03;2.55;;;18.80;72.20;;;;;;5090348;28;20045;-74
2021/07/28 10:12:02;;;;;;;3.38;2.10;;;19.00;71.50;;;;;;5073220;28;20514;-75
2021/07/28 10:14:31;;;;;;;3.88;2.35;;;19.00;71.50;;;;;;5073142;28;20494;-74
2021/07/28 10:16:59;;;;;;;8.65;2.42;;;18.90;70.80;;;;;;5071832;28;20052;-74
2021/07/28 10:19:28;;;;;;;5.10;2.63;;;18.70;70.80;;;;;;5072822;28;20045;-75
2021/07/28 10:21:56;;;;;;;4.43;2.30;;;18.60;71.30;;;;;;5074597;28;20515;-74
2021/07/28 10:24:24;;;;;;;3.65;2.30;;;18.30;71.70;;;;;;5074427;28;20048;-75
2021/07/28 10:26:54;;;;;;;2.38;2.15;;;18.20;71.60;;;;;;5072851;28;20049;-74
2021/07/28 10:29:28;;;;;;;3.50;2.10;;;18.00;71.20;;;;;;5061109;28;20068;-74
2021/07/28 10:31:56;;;;;;;6.47;2.40;;;17.80;72.00;;;;;;5053271;28;20052;-75
2021/07/28 10:34:32;;;;;;;4.28;2.25;;;17.70;72.90;;;;;;5054127;28;20392;-75
2021/07/28 10:37:05;;;;;;;2.75;2.00;;;17.50;72.80;;;;;;5053144;28;20041;-75
2021/07/28 10:39:38;;;;;;;14.25;3.10;;;17.40;72.80;;;;;;5054244;28;20048;-74
2021/07/28 10:42:06;;;;;;;;;;;17.30;73.10;;;;;;5053350;28;20496;-72
2021/07/28 10:44:55;;;;;;;12.18;2.47;;;17.30;74.20;;;;;;5054276;28;19944;-73
2021/07/28 10:47:42;;;;;;;13.77;2.95;;;17.00;74.90;;;;;;5068604;28;20059;-73
2021/07/28 10:50:22;;;;;;;14.20;2.70;;;16.70;74.40;;;;;;5059438;28;20036;-71
2021/07/28 10:52:54;;;;;;;7.05;2.15;;;16.30;74.70;;;;;;5058773;28;20050;-72
2021/07/28 10:55:32;;;;;;;3.92;1.90;;;16.00;74.90;;;;;;5059027;28;20052;-72
2021/07/28 10:58:10;;;;;;;3.83;1.48;;;16.00;75.00;;;;;;5053367;28;20037;-73
2021/07/28 11:00:38;;;;;;;2.47;1.48;;;16.30;75.30;;;;;;5058759;28;20041;-73
2021/07/28 11:03:09;;;;;;;2.78;1.63;;;16.80;74.60;;;;;;5071634;28;20045;-73
2021/07/28 11:05:39;;;;;;;4.53;1.80;;;17.10;74.40;;;;;;5071202;28;20060;-73
2021/07/28 11:08:18;;;;;;;3.20;1.77;;;17.30;73.70;;;;;;5071264;28;20376;-74
2021/07/28 11:10:45;;;;;;;6.50;2.10;;;17.50;74.10;;;;;;5065967;28;20508;-73
2021/07/28 11:13:19;;;;;;;2.83;1.50;;;17.60;73.90;;;;;;5052491;28;20090;-72
2021/07/28 11:15:58;;;;;;;6.55;2.25;;;17.60;74.00;;;;;;5051866;28;20060;-73
2021/07/28 11:18:41;;;;;;;2.58;2.03;;;17.50;73.80;;;;;;5055259;28;20049;-73
2021/07/28 11:21:18;;;;;;;2.20;1.98;;;17.50;74.50;;;;;;5058195;28;20068;-73
2021/07/28 11:23:47;;;;;;;3.60;1.50;;;17.50;73.20;;;;;;5051811;28;20059;-74
2021/07/28 11:26:32;;;;;;;4.85;1.30;;;17.40;72.20;;;;;;5052848;28;20067;-73
2021/07/28 11:29:17;;;;;;;4.78;1.40;;;17.30;70.60;;;;;;5052052;28;20502;-74
2021/07/28 11:31:47;;;;;;;1.73;1.38;;;17.30;70.10;;;;;;5052359;28;20488;-75
2021/07/28 11:34:20;;;;;;;2.38;1.42;;;17.20;70.10;;;;;;5052870;28;20053;-75
2021/07/28 11:37:19;;;;;;;2.47;1.70;;;17.10;70.30;;;;;;5052930;28;20041;-75
2021/07/28 11:39:50;;;;;;;3.25;1.70;;;17.00;70.90;;;;;;5052043;28;20297;-75
2021/07/28 11:42:18;;;;;;;1.98;1.77;;;17.00;71.30;;;;;;5052908;28;20052;-75
2021/07/28 11:44:46;;;;;;;2.88;1.83;;;16.90;71.80;;;;;;5055829;28;20041;-75
2021/07/28 11:47:22;;;;;;;2.10;1.90;;;17.00;73.00;;;;;;5052258;28;20048;-75
2021/07/28 11:50:20;;;;;;;2.58;1.75;;;17.00;73.50;;;;;;5052596;28;20045;-75
2021/07/28 11:52:48;;;;;;;1.80;1.70;;;17.20;73.50;;;;;;5042808;28;20049;-75
2021/07/28 11:55:23;;;;;;;2.30;1.63;;;17.40;73.60;;;;;;5054979;28;20045;-75
2021/07/28 11:57:51;;;;;;;3.03;1.73;;;17.70;73.30;;;;;;5053629;28;20051;-75
2021/07/28 12:00:32;;;;;;;1.50;1.40;;;17.80;72.00;;;;;;5049528;28;20049;-74
2021/07/28 12:03:22;;;;;;;2.42;1.38;;;17.80;71.30;;;;;;5051963;28;20069;-75
2021/07/28 12:06:04;;;;;;;3.08;1.90;;;17.80;71.20;;;;;;5051339;28;20037;-75
2021/07/28 12:08:34;;;;;;;3.63;1.65;;;17.90;71.60;;;;;;5050972;28;20048;-75
2021/07/28 12:11:09;;;;;;;2.28;1.58;;;18.00;71.80;;;;;;5052516;28;20045;-76
2021/07/28 12:13:45;;;;;;;5.25;1.27;;;18.20;71.10;;;;;;5052066;28;20037;-74
2021/07/28 12:16:14;;;;;;;6.07;1.70;;;18.30;69.10;;;;;;5050155;28;20143;-74
2021/07/28 12:18:43;;;;;;;1.63;1.30;;;18.40;69.60;;;;;;5052133;28;20040;-73
2021/07/28 12:21:12;;;;;;;2.53;1.60;;;18.60;68.60;;;;;;5051132;28;20049;-74
2021/07/28 12:23:51;;;;;;;2.05;1.50;;;18.80;69.00;;;;;;5051211;28;20044;-74
2021/07/28 12:26:45;;;;;;;6.28;1.40;;;19.30;69.20;;;;;;5052051;28;20053;-74
2021/07/28 12:29:37;;;;;;;2.17;1.65;;;19.70;67.10;;;;;;5050212;28;20049;-74
2021/07/28 12:32:12;;;;;;;2.30;1.50;;;20.00;67.10;;;;;;5051866;28;20056;-74
2021/07/28 12:34:41;;;;;;;3.33;1.42;;;20.20;65.50;;;;;;5051978;28;20060;-74
2021/07/28 12:37:19;;;;;;;4.75;1.55;;;20.30;64.20;;;;;;5051752;28;20052;-74
2021/07/28 12:39:47;;;;;;;5.40;1.70;;;20.50;62.80;;;;;;5049995;28;20504;-74
2021/07/28 12:42:30;;;;;;;1.77;1.38;;;20.80;61.40;;;;;;5051812;28;20045;-74
2021/07/28 12:44:59;;;;;;;4.18;1.40;;;21.20;61.50;;;;;;5033822;28;20049;-74
2021/07/28 12:47:27;;;;;;;1.83;1.30;;;21.70;58.60;;;;;;5050236;28;20064;-75
2021/07/28 12:49:56;;;;;;;2.70;1.42;;;21.70;57.40;;;;;;5018445;28;20084;-75
2021/07/28 12:52:23;;;;;;;1.40;1.30;;;21.30;58.80;;;;;;5035806;28;20044;-74
2021/07/28 12:54:51;;;;;;;1.13;1.02;;;21.10;58.40;;;;;;5071692;28;20044;-75
2021/07/28 12:57:19;;;;;;;1.60;1.10;;;20.80;57.60;;;;;;5070164;28;20044;-75
2021/07/28 12:59:47;;;;;;;1.77;1.10;;;20.60;57.70;;;;;;5067278;28;20055;-75